sensor_id;sensor_type;location;lat;lon;timestamp;pressure;altitude;pressure_sealevel;temperature;humidity
62333;BME280;48624;49.812;8.562;2023-10-19T00:00:40;98849.34;;;11.84;100.00
62333;BME280;48624;49.812;8.562;2023-10-19T00:03:10;98833.56;;;11.83;100.00
62333;BME280;48624;49.812;8.562;2023-10-19T00:05:36;98838.78;;;11.92;100.00
62333;BME280;48624;49.812;8.562;2023-10-19T00:08:04;98838.13;;;11.90;100.00
62333;BME280;48624;49.812;8.562;2023-10-19T00:10:45;98836.06;;;11.84;100.00
62333;BME280;48624;49.812;8.562;2023-10-19T00:13:20;98821.94;;;11.84;100.00
62333;BME280;48624;49.812;8.562;2023-10-19T00:15:47;98823.47;;;11.86;100.00
62333;BME280;48624;49.812;8.562;2023-10-19T00:18:15;98824.84;;;11.90;100.00
62333;BME280;48624;49.812;8.562;2023-10-19T00:20:42;98809.38;;;11.86;100.00
62333;BME280;48624;49.812;8.562;2023-10-19T00:23:11;98819.69;;;11.71;100.00
62333;BME280;48624;49.812;8.562;2023-10-19T00:25:41;98817.19;;;11.87;100.00
62333;BME280;48624;49.812;8.562;2023-10-19T00:28:07;98820.06;;;11.76;100.00
62333;BME280;48624;49.812;8.562;2023-10-19T00:30:34;98816.88;;;11.72;100.00
62333;BME280;48624;49.812;8.562;2023-10-19T00:33:02;98823.41;;;11.78;100.00
62333;BME280;48624;49.812;8.562;2023-10-19T00:35:41;98822.66;;;11.86;100.00
62333;BME280;48624;49.812;8.562;2023-10-19T00:38:15;98814.09;;;11.74;100.00
62333;BME280;48624;49.812;8.562;2023-10-19T00:40:56;98813.47;;;11.80;100.00
62333;BME280;48624;49.812;8.562;2023-10-19T00:43:33;98812.84;;;11.86;100.00
62333;BME280;48624;49.812;8.562;2023-10-19T00:46:05;98812.78;;;11.96;100.00
62333;BME280;48624;49.812;8.562;2023-10-19T00:48:35;98804.59;;;11.89;100.00
62333;BME280;48624;49.812;8.562;2023-10-19T00:51:02;98801.09;;;12.07;100.00
62333;BME280;48624;49.812;8.562;2023-10-19T00:53:36;98796.63;;;12.07;100.00
62333;BME280;48624;49.812;8.562;2023-10-19T00:56:03;98799.28;;;12.07;100.00
62333;BME280;48624;49.812;8.562;2023-10-19T00:58:32;98788.28;;;12.20;100.00
62333;BME280;48624;49.812;8.562;2023-10-19T01:01:02;98784.91;;;12.18;100.00
62333;BME280;48624;49.812;8.562;2023-10-19T01:03:33;98793.34;;;12.14;100.00
62333;BME280;48624;49.812;8.562;2023-10-19T01:06:05;98777.81;;;12.19;100.00
62333;BME280;48624;49.812;8.562;2023-10-19T01:08:36;98777.28;;;12.15;100.00
62333;BME280;48624;49.812;8.562;2023-10-19T01:11:08;98762.81;;;12.10;100.00
62333;BME280;48624;49.812;8.562;2023-10-19T01:13:37;98764.91;;;12.32;100.00
62333;BME280;48624;49.812;8.562;2023-10-19T01:16:03;98761.66;;;12.39;100.00
62333;BME280;48624;49.812;8.562;2023-10-19T01:18:30;98757.81;;;12.33;100.00
62333;BME280;48624;49.812;8.562;2023-10-19T01:20:58;98759.63;;;12.32;100.00
62333;BME280;48624;49.812;8.562;2023-10-19T01:23:27;98757.13;;;12.31;100.00
62333;BME280;48624;49.812;8.562;2023-10-19T01:25:58;98754.47;;;12.31;100.00
62333;BME280;48624;49.812;8.562;2023-10-19T01:28:37;98752.59;;;12.49;100.00
62333;BME280;48624;49.812;8.562;2023-10-19T01:31:06;98747.94;;;12.52;100.00
62333;BME280;48624;49.812;8.562;2023-10-19T01:33:32;98754.25;;;12.51;100.00
62333;BME280;48624;49.812;8.562;2023-10-19T01:35:59;98763.59;;;12.63;100.00
62333;BME280;48624;49.812;8.562;2023-10-19T01:38:40;98768.75;;;12.65;100.00
62333;BME280;48624;49.812;8.562;2023-10-19T01:41:07;98757.66;;;12.69;100.00
62333;BME280;48624;49.812;8.562;2023-10-19T01:43:42;98762.25;;;12.59;100.00
62333;BME280;48624;49.812;8.562;2023-10-19T01:46:10;98757.75;;;12.59;100.00
62333;BME280;48624;49.812;8.562;2023-10-19T01:48:42;98758.41;;;12.53;100.00
62333;BME280;48624;49.812;8.562;2023-10-19T01:51:09;98757.81;;;12.68;100.00
62333;BME280;48624;49.812;8.562;2023-10-19T01:53:37;98743.81;;;12.57;100.00
62333;BME280;48624;49.812;8.562;2023-10-19T01:56:08;98739.53;;;12.65;100.00
62333;BME280;48624;49.812;8.562;2023-10-19T01:58:39;98742.06;;;12.83;100.00
62333;BME280;48624;49.812;8.562;2023-10-19T02:01:05;98741.88;;;12.76;100.00
62333;BME280;48624;49.812;8.562;2023-10-19T02:03:44;98732.19;;;12.58;100.00
62333;BME280;48624;49.812;8.562;2023-10-19T02:06:11;98749.69;;;12.69;100.00
62333;BME280;48624;49.812;8.562;2023-10-19T02:09:03;98742.22;;;12.73;100.00
62333;BME280;48624;49.812;8.562;2023-10-19T02:11:50;98741.19;;;12.66;100.00
62333;BME280;48624;49.812;8.562;2023-10-19T02:14:18;98737.03;;;12.63;100.00
62333;BME280;48624;49.812;8.562;2023-10-19T02:16:49;98730.72;;;12.64;100.00
62333;BME280;48624;49.812;8.562;2023-10-19T02:19:19;98726.28;;;12.73;100.00
62333;BME280;48624;49.812;8.562;2023-10-19T02:21:47;98724.09;;;12.68;100.00
62333;BME280;48624;49.812;8.562;2023-10-19T02:24:14;98730.56;;;12.66;100.00
62333;BME280;48624;49.812;8.562;2023-10-19T02:26:43;98720.47;;;12.77;100.00
62333;BME280;48624;49.812;8.562;2023-10-19T02:29:10;98717.50;;;12.81;100.00
62333;BME280;48624;49.812;8.562;2023-10-19T02:31:36;98705.16;;;12.63;100.00
62333;BME280;48624;49.812;8.562;2023-10-19T02:34:03;98715.66;;;12.73;100.00
62333;BME280;48624;49.812;8.562;2023-10-19T02:36:30;98713.28;;;12.61;100.00
62333;BME280;48624;49.812;8.562;2023-10-19T02:38:57;98707.84;;;12.80;100.00
62333;BME280;48624;49.812;8.562;2023-10-19T02:41:26;98713.66;;;12.75;100.00
62333;BME280;48624;49.812;8.562;2023-10-19T02:43:52;98707.31;;;12.68;100.00
62333;BME280;48624;49.812;8.562;2023-10-19T02:46:30;98699.97;;;12.53;100.00
62333;BME280;48624;49.812;8.562;2023-10-19T02:49:00;98706.44;;;12.51;100.00
62333;BME280;48624;49.812;8.562;2023-10-19T02:51:25;98696.84;;;12.58;100.00
62333;BME280;48624;49.812;8.562;2023-10-19T02:53:51;98691.16;;;12.53;100.00
62333;BME280;48624;49.812;8.562;2023-10-19T02:56:16;98692.03;;;12.61;100.00
62333;BME280;48624;49.812;8.562;2023-10-19T02:58:43;98684.31;;;12.42;100.00
62333;BME280;48624;49.812;8.562;2023-10-19T03:01:15;98679.72;;;12.52;100.00
62333;BME280;48624;49.812;8.562;2023-10-19T03:03:44;98682.88;;;12.56;100.00
62333;BME280;48624;49.812;8.562;2023-10-19T03:06:11;98682.34;;;12.44;100.00
62333;BME280;48624;49.812;8.562;2023-10-19T03:08:36;98698.31;;;12.60;100.00
62333;BME280;48624;49.812;8.562;2023-10-19T03:11:02;98690.34;;;12.60;100.00
62333;BME280;48624;49.812;8.562;2023-10-19T03:13:30;98681.22;;;12.63;100.00
62333;BME280;48624;49.812;8.562;2023-10-19T03:16:01;98692.16;;;12.52;100.00
62333;BME280;48624;49.812;8.562;2023-10-19T03:18:31;98692.19;;;12.60;100.00
62333;BME280;48624;49.812;8.562;2023-10-19T03:20:56;98692.63;;;12.47;100.00
62333;BME280;48624;49.812;8.562;2023-10-19T03:23:22;98699.09;;;12.44;100.00
62333;BME280;48624;49.812;8.562;2023-10-19T03:25:53;98696.84;;;12.58;100.00
62333;BME280;48624;49.812;8.562;2023-10-19T03:28:37;98697.31;;;12.53;100.00
62333;BME280;48624;49.812;8.562;2023-10-19T03:31:03;98695.84;;;12.59;100.00
62333;BME280;48624;49.812;8.562;2023-10-19T03:33:30;98685.22;;;12.59;100.00
62333;BME280;48624;49.812;8.562;2023-10-19T03:35:56;98685.34;;;12.49;100.00
62333;BME280;48624;49.812;8.562;2023-10-19T03:38:21;98673.72;;;12.50;100.00
62333;BME280;48624;49.812;8.562;2023-10-19T03:40:48;98673.13;;;12.65;100.00
62333;BME280;48624;49.812;8.562;2023-10-19T03:43:18;98671.13;;;12.67;100.00
62333;BME280;48624;49.812;8.562;2023-10-19T03:45:46;98667.94;;;12.63;100.00
62333;BME280;48624;49.812;8.562;2023-10-19T03:48:24;98663.66;;;12.70;100.00
62333;BME280;48624;49.812;8.562;2023-10-19T03:50:54;98665.97;;;12.65;100.00
62333;BME280;48624;49.812;8.562;2023-10-19T03:53:21;98657.50;;;12.70;100.00
62333;BME280;48624;49.812;8.562;2023-10-19T03:55:47;98651.69;;;12.66;100.00
62333;BME280;48624;49.812;8.562;2023-10-19T03:58:13;98636.13;;;12.80;100.00
62333;BME280;48624;49.812;8.562;2023-10-19T04:00:38;98637.09;;;12.70;100.00
62333;BME280;48624;49.812;8.562;2023-10-19T04:03:04;98632.91;;;12.59;100.00
62333;BME280;48624;49.812;8.562;2023-10-19T04:05:30;98628.28;;;12.61;100.00
62333;BME280;48624;49.812;8.562;2023-10-19T04:07:56;98635.25;;;12.71;100.00
62333;BME280;48624;49.812;8.562;2023-10-19T04:10:30;98631.78;;;12.70;100.00
62333;BME280;48624;49.812;8.562;2023-10-19T04:12:56;98631.63;;;12.72;100.00
62333;BME280;48624;49.812;8.562;2023-10-19T04:15:24;98617.66;;;12.61;100.00
62333;BME280;48624;49.812;8.562;2023-10-19T04:17:52;98615.00;;;12.61;100.00
62333;BME280;48624;49.812;8.562;2023-10-19T04:20:20;98614.16;;;12.61;100.00
62333;BME280;48624;49.812;8.562;2023-10-19T04:22:51;98613.31;;;12.52;100.00
62333;BME280;48624;49.812;8.562;2023-10-19T04:25:19;98610.81;;;12.51;100.00
62333;BME280;48624;49.812;8.562;2023-10-19T04:27:47;98601.66;;;12.37;100.00
62333;BME280;48624;49.812;8.562;2023-10-19T04:30:15;98609.94;;;12.42;100.00
62333;BME280;48624;49.812;8.562;2023-10-19T04:32:53;98608.28;;;12.41;100.00
62333;BME280;48624;49.812;8.562;2023-10-19T04:35:19;98608.44;;;12.31;100.00
62333;BME280;48624;49.812;8.562;2023-10-19T04:37:51;98615.19;;;12.17;100.00
62333;BME280;48624;49.812;8.562;2023-10-19T04:40:18;98616.19;;;12.16;100.00
62333;BME280;48624;49.812;8.562;2023-10-19T04:42:45;98614.06;;;12.28;100.00
62333;BME280;48624;49.812;8.562;2023-10-19T04:45:11;98615.53;;;12.22;100.00
62333;BME280;48624;49.812;8.562;2023-10-19T04:47:37;98607.75;;;12.20;100.00
62333;BME280;48624;49.812;8.562;2023-10-19T04:50:03;98622.72;;;12.30;100.00
62333;BME280;48624;49.812;8.562;2023-10-19T04:52:30;98623.38;;;12.32;100.00
62333;BME280;48624;49.812;8.562;2023-10-19T04:54:55;98619.19;;;12.21;100.00
62333;BME280;48624;49.812;8.562;2023-10-19T04:57:20;98615.41;;;12.32;100.00
62333;BME280;48624;49.812;8.562;2023-10-19T04:59:46;98613.59;;;12.41;100.00
62333;BME280;48624;49.812;8.562;2023-10-19T05:02:12;98602.66;;;12.35;100.00
62333;BME280;48624;49.812;8.562;2023-10-19T05:04:37;98604.97;;;12.39;100.00
62333;BME280;48624;49.812;8.562;2023-10-19T05:07:03;98610.31;;;12.47;100.00
62333;BME280;48624;49.812;8.562;2023-10-19T05:09:29;98612.59;;;12.42;100.00
62333;BME280;48624;49.812;8.562;2023-10-19T05:11:54;98613.44;;;12.42;100.00
62333;BME280;48624;49.812;8.562;2023-10-19T05:14:20;98617.63;;;12.45;100.00
62333;BME280;48624;49.812;8.562;2023-10-19T05:16:45;98612.13;;;12.38;100.00
62333;BME280;48624;49.812;8.562;2023-10-19T05:19:11;98611.97;;;12.48;100.00
62333;BME280;48624;49.812;8.562;2023-10-19T05:21:36;98604.34;;;12.45;100.00
62333;BME280;48624;49.812;8.562;2023-10-19T05:24:02;98598.53;;;12.49;100.00
62333;BME280;48624;49.812;8.562;2023-10-19T05:26:27;98589.59;;;12.59;100.00
62333;BME280;48624;49.812;8.562;2023-10-19T05:28:52;98592.41;;;12.57;100.00
62333;BME280;48624;49.812;8.562;2023-10-19T05:31:19;98598.53;;;12.49;100.00
62333;BME280;48624;49.812;8.562;2023-10-19T05:33:44;98603.88;;;12.58;100.00
62333;BME280;48624;49.812;8.562;2023-10-19T05:36:10;98600.38;;;12.66;100.00
62333;BME280;48624;49.812;8.562;2023-10-19T05:38:35;98602.03;;;12.58;100.00
62333;BME280;48624;49.812;8.562;2023-10-19T05:41:00;98595.88;;;12.66;100.00
62333;BME280;48624;49.812;8.562;2023-10-19T05:43:26;98599.72;;;12.63;100.00
62333;BME280;48624;49.812;8.562;2023-10-19T05:45:51;98604.69;;;12.58;100.00
62333;BME280;48624;49.812;8.562;2023-10-19T05:48:17;98604.69;;;12.67;100.00
62333;BME280;48624;49.812;8.562;2023-10-19T05:50:42;98603.72;;;12.76;100.00
62333;BME280;48624;49.812;8.562;2023-10-19T05:53:08;98610.38;;;12.88;100.00
62333;BME280;48624;49.812;8.562;2023-10-19T05:55:34;98597.94;;;12.97;100.00
62333;BME280;48624;49.812;8.562;2023-10-19T05:58:01;98602.06;;;12.83;100.00
62333;BME280;48624;49.812;8.562;2023-10-19T06:00:29;98601.72;;;12.78;100.00
62333;BME280;48624;49.812;8.562;2023-10-19T06:02:55;98615.69;;;12.88;100.00
62333;BME280;48624;49.812;8.562;2023-10-19T06:05:21;98619.50;;;12.94;100.00
62333;BME280;48624;49.812;8.562;2023-10-19T06:07:48;98612.88;;;13.07;100.00
62333;BME280;48624;49.812;8.562;2023-10-19T06:10:15;98606.06;;;12.87;100.00
62333;BME280;48624;49.812;8.562;2023-10-19T06:12:43;98626.19;;;13.07;100.00
62333;BME280;48624;49.812;8.562;2023-10-19T06:15:10;98618.53;;;13.12;100.00
62333;BME280;48624;49.812;8.562;2023-10-19T06:17:39;98621.03;;;13.30;100.00
62333;BME280;48624;49.812;8.562;2023-10-19T06:20:10;98627.66;;;13.26;100.00
62333;BME280;48624;49.812;8.562;2023-10-19T06:22:55;98620.88;;;13.15;100.00
62333;BME280;48624;49.812;8.562;2023-10-19T06:25:23;98618.38;;;13.22;100.00
62333;BME280;48624;49.812;8.562;2023-10-19T06:27:50;98622.03;;;13.21;100.00
62333;BME280;48624;49.812;8.562;2023-10-19T06:30:17;98623.69;;;13.38;100.00
62333;BME280;48624;49.812;8.562;2023-10-19T06:32:46;98621.19;;;13.20;100.00
62333;BME280;48624;49.812;8.562;2023-10-19T06:35:12;98624.84;;;13.19;100.00
62333;BME280;48624;49.812;8.562;2023-10-19T06:37:37;98621.84;;;13.22;100.00
62333;BME280;48624;49.812;8.562;2023-10-19T06:40:04;98634.16;;;13.15;100.00
62333;BME280;48624;49.812;8.562;2023-10-19T06:42:31;98628.66;;;13.16;100.00
62333;BME280;48624;49.812;8.562;2023-10-19T06:44:56;98632.31;;;13.15;100.00
62333;BME280;48624;49.812;8.562;2023-10-19T06:47:22;98630.84;;;13.04;100.00
62333;BME280;48624;49.812;8.562;2023-10-19T06:49:48;98626.00;;;13.08;100.00
62333;BME280;48624;49.812;8.562;2023-10-19T06:52:13;98624.69;;;13.21;100.00
62333;BME280;48624;49.812;8.562;2023-10-19T06:54:38;98621.84;;;13.22;100.00
62333;BME280;48624;49.812;8.562;2023-10-19T06:57:04;98616.72;;;13.29;100.00
62333;BME280;48624;49.812;8.562;2023-10-19T06:59:29;98621.84;;;13.39;100.00
62333;BME280;48624;49.812;8.562;2023-10-19T07:01:54;98620.69;;;13.16;100.00
62333;BME280;48624;49.812;8.562;2023-10-19T07:04:20;98611.84;;;13.41;100.00
62333;BME280;48624;49.812;8.562;2023-10-19T07:06:45;98619.34;;;13.54;100.00
62333;BME280;48624;49.812;8.562;2023-10-19T07:09:12;98613.22;;;13.62;100.00
62333;BME280;48624;49.812;8.562;2023-10-19T07:11:38;98611.22;;;13.47;100.00
62333;BME280;48624;49.812;8.562;2023-10-19T07:14:03;98616.88;;;13.52;100.00
62333;BME280;48624;49.812;8.562;2023-10-19T07:16:32;98613.69;;;13.65;100.00
62333;BME280;48624;49.812;8.562;2023-10-19T07:18:57;98605.22;;;13.62;100.00
62333;BME280;48624;49.812;8.562;2023-10-19T07:21:24;98608.50;;;13.80;100.00
62333;BME280;48624;49.812;8.562;2023-10-19T07:23:50;98606.81;;;13.79;100.00
62333;BME280;48624;49.812;8.562;2023-10-19T07:26:17;98606.81;;;13.87;100.00
62333;BME280;48624;49.812;8.562;2023-10-19T07:28:44;98613.78;;;13.88;100.00
62333;BME280;48624;49.812;8.562;2023-10-19T07:31:10;98606.44;;;13.99;100.00
62333;BME280;48624;49.812;8.562;2023-10-19T07:33:40;98608.94;;;14.00;100.00
62333;BME280;48624;49.812;8.562;2023-10-19T07:36:13;98604.94;;;14.05;100.00
62333;BME280;48624;49.812;8.562;2023-10-19T07:38:43;98612.34;;;14.18;100.00
62333;BME280;48624;49.812;8.562;2023-10-19T07:41:10;98609.53;;;14.19;100.00
62333;BME280;48624;49.812;8.562;2023-10-19T07:43:36;98613.69;;;14.22;100.00
62333;BME280;48624;49.812;8.562;2023-10-19T07:46:01;98612.00;;;14.29;100.00
62333;BME280;48624;49.812;8.562;2023-10-19T07:48:27;98605.16;;;14.26;100.00
62333;BME280;48624;49.812;8.562;2023-10-19T07:50:52;98614.03;;;14.50;100.00
62333;BME280;48624;49.812;8.562;2023-10-19T07:53:18;98615.31;;;14.63;100.00
62333;BME280;48624;49.812;8.562;2023-10-19T07:55:44;98606.03;;;14.50;100.00
62333;BME280;48624;49.812;8.562;2023-10-19T07:58:09;98610.19;;;14.53;100.00
62333;BME280;48624;49.812;8.562;2023-10-19T08:00:35;98594.84;;;14.55;100.00
62333;BME280;48624;49.812;8.562;2023-10-19T08:03:01;98593.53;;;14.51;100.00
62333;BME280;48624;49.812;8.562;2023-10-19T08:05:28;98595.81;;;14.62;100.00
62333;BME280;48624;49.812;8.562;2023-10-19T08:07:53;98593.97;;;14.63;100.00
62333;BME280;48624;49.812;8.562;2023-10-19T08:10:20;98589.59;;;14.70;100.00
62333;BME280;48624;49.812;8.562;2023-10-19T08:12:47;98596.94;;;14.68;100.00
62333;BME280;48624;49.812;8.562;2023-10-19T08:15:13;98605.41;;;14.71;100.00
62333;BME280;48624;49.812;8.562;2023-10-19T08:17:41;98599.56;;;14.76;100.00
62333;BME280;48624;49.812;8.562;2023-10-19T08:20:08;98599.31;;;14.63;100.00
62333;BME280;48624;49.812;8.562;2023-10-19T08:22:38;98607.31;;;14.63;100.00
62333;BME280;48624;49.812;8.562;2023-10-19T08:25:04;98610.41;;;14.75;100.00
62333;BME280;48624;49.812;8.562;2023-10-19T08:27:37;98609.44;;;14.76;100.00
62333;BME280;48624;49.812;8.562;2023-10-19T08:30:03;98608.38;;;14.85;100.00
62333;BME280;48624;49.812;8.562;2023-10-19T08:32:28;98606.94;;;14.97;100.00
62333;BME280;48624;49.812;8.562;2023-10-19T08:34:54;98611.72;;;15.02;100.00
62333;BME280;48624;49.812;8.562;2023-10-19T08:37:19;98596.41;;;15.19;100.00
62333;BME280;48624;49.812;8.562;2023-10-19T08:39:44;98595.78;;;15.17;100.00
62333;BME280;48624;49.812;8.562;2023-10-19T08:42:10;98599.94;;;15.35;100.00
62333;BME280;48624;49.812;8.562;2023-10-19T08:44:35;98595.09;;;15.38;100.00
62333;BME280;48624;49.812;8.562;2023-10-19T08:47:01;98587.34;;;15.44;100.00
62333;BME280;48624;49.812;8.562;2023-10-19T08:49:26;98579.00;;;15.47;100.00
62333;BME280;48624;49.812;8.562;2023-10-19T08:51:53;98572.66;;;15.63;100.00
62333;BME280;48624;49.812;8.562;2023-10-19T08:54:19;98579.81;;;15.62;100.00
62333;BME280;48624;49.812;8.562;2023-10-19T08:56:44;98588.22;;;15.59;100.00
62333;BME280;48624;49.812;8.562;2023-10-19T08:59:10;98576.06;;;15.57;100.00
62333;BME280;48624;49.812;8.562;2023-10-19T09:01:36;98586.66;;;15.80;100.00
62333;BME280;48624;49.812;8.562;2023-10-19T09:04:02;98578.03;;;15.93;100.00
62333;BME280;48624;49.812;8.562;2023-10-19T09:06:28;98585.53;;;15.89;100.00
62333;BME280;48624;49.812;8.562;2023-10-19T09:08:57;98570.00;;;16.08;100.00
62333;BME280;48624;49.812;8.562;2023-10-19T09:11:25;98564.50;;;15.94;100.00
62333;BME280;48624;49.812;8.562;2023-10-19T09:13:52;98563.13;;;16.20;100.00
62333;BME280;48624;49.812;8.562;2023-10-19T09:16:21;98560.13;;;16.23;100.00
62333;BME280;48624;49.812;8.562;2023-10-19T09:18:48;98551.78;;;16.33;100.00
62333;BME280;48624;49.812;8.562;2023-10-19T09:21:18;98556.84;;;16.65;100.00
62333;BME280;48624;49.812;8.562;2023-10-19T09:23:51;98551.94;;;16.47;100.00
62333;BME280;48624;49.812;8.562;2023-10-19T09:26:17;98546.59;;;16.69;100.00
62333;BME280;48624;49.812;8.562;2023-10-19T09:28:46;98557.91;;;16.71;100.00
62333;BME280;48624;49.812;8.562;2023-10-19T09:31:15;98547.28;;;16.77;100.00
62333;BME280;48624;49.812;8.562;2023-10-19T09:33:42;98548.19;;;16.85;100.00
62333;BME280;48624;49.812;8.562;2023-10-19T09:36:10;98541.16;;;17.05;100.00
62333;BME280;48624;49.812;8.562;2023-10-19T09:38:51;98537.19;;;17.23;100.00
62333;BME280;48624;49.812;8.562;2023-10-19T09:41:20;98542.25;;;17.40;100.00
62333;BME280;48624;49.812;8.562;2023-10-19T09:43:58;98543.59;;;17.57;100.00
62333;BME280;48624;49.812;8.562;2023-10-19T09:46:31;98552.06;;;17.61;100.00
62333;BME280;48624;49.812;8.562;2023-10-19T09:48:57;98538.13;;;17.72;100.00
62333;BME280;48624;49.812;8.562;2023-10-19T09:51:23;98532.56;;;17.74;100.00
62333;BME280;48624;49.812;8.562;2023-10-19T09:56:21;98523.81;;;18.00;100.00
62333;BME280;48624;49.812;8.562;2023-10-19T09:58:53;98526.03;;;18.32;100.00
62333;BME280;48624;49.812;8.562;2023-10-19T10:01:19;98530.81;;;18.57;100.00
62333;BME280;48624;49.812;8.562;2023-10-19T10:03:51;98530.84;;;18.70;99.34
62333;BME280;48624;49.812;8.562;2023-10-19T10:06:29;98525.88;;;18.94;98.58
62333;BME280;48624;49.812;8.562;2023-10-19T10:08:56;98534.38;;;19.11;99.08
62333;BME280;48624;49.812;8.562;2023-10-19T10:11:24;98528.78;;;18.99;96.41
62333;BME280;48624;49.812;8.562;2023-10-19T10:13:55;98527.34;;;19.10;95.93
62333;BME280;48624;49.812;8.562;2023-10-19T10:16:27;98529.00;;;19.05;94.50
62333;BME280;48624;49.812;8.562;2023-10-19T10:18:55;98514.13;;;19.36;95.15
62333;BME280;48624;49.812;8.562;2023-10-19T10:21:26;98518.00;;;19.47;90.63
62333;BME280;48624;49.812;8.562;2023-10-19T10:23:52;98504.91;;;19.77;92.83
62333;BME280;48624;49.812;8.562;2023-10-19T10:26:20;98507.63;;;19.71;90.13
62333;BME280;48624;49.812;8.562;2023-10-19T10:29:08;98502.78;;;19.93;87.94
62333;BME280;48624;49.812;8.562;2023-10-19T10:31:45;98506.13;;;19.88;88.51
62333;BME280;48624;49.812;8.562;2023-10-19T10:34:16;98511.25;;;19.90;88.12
62333;BME280;48624;49.812;8.562;2023-10-19T10:37:05;98509.75;;;20.07;87.62
62333;BME280;48624;49.812;8.562;2023-10-19T10:39:33;98501.69;;;20.07;87.82
62333;BME280;48624;49.812;8.562;2023-10-19T10:42:03;98501.06;;;20.12;86.98
62333;BME280;48624;49.812;8.562;2023-10-19T10:44:48;98493.59;;;20.53;84.02
62333;BME280;48624;49.812;8.562;2023-10-19T10:47:19;98498.66;;;20.36;84.21
62333;BME280;48624;49.812;8.562;2023-10-19T10:49:54;98504.03;;;19.97;83.59
62333;BME280;48624;49.812;8.562;2023-10-19T10:52:36;98513.78;;;19.85;85.02
62333;BME280;48624;49.812;8.562;2023-10-19T10:55:09;98502.53;;;20.08;83.37
62333;BME280;48624;49.812;8.562;2023-10-19T10:57:36;98505.69;;;19.91;85.18
62333;BME280;48624;49.812;8.562;2023-10-19T11:00:14;98502.03;;;19.72;86.46
62333;BME280;48624;49.812;8.562;2023-10-19T11:03:03;98505.97;;;19.69;87.07
62333;BME280;48624;49.812;8.562;2023-10-19T11:05:30;98500.53;;;19.83;87.04
62333;BME280;48624;49.812;8.562;2023-10-19T11:08:06;98504.56;;;19.47;88.43
62333;BME280;48624;49.812;8.562;2023-10-19T11:10:32;98490.16;;;19.34;89.46
62333;BME280;48624;49.812;8.562;2023-10-19T11:13:03;98483.31;;;19.38;88.99
62333;BME280;48624;49.812;8.562;2023-10-19T11:15:28;98491.78;;;19.42;87.71
62333;BME280;48624;49.812;8.562;2023-10-19T11:17:54;98491.81;;;19.29;88.07
62333;BME280;48624;49.812;8.562;2023-10-19T11:20:23;98494.94;;;19.12;88.45
62333;BME280;48624;49.812;8.562;2023-10-19T11:22:53;98497.19;;;19.29;88.87
62333;BME280;48624;49.812;8.562;2023-10-19T11:25:25;98488.13;;;19.16;89.29
62333;BME280;48624;49.812;8.562;2023-10-19T11:27:56;98485.81;;;19.33;88.84
62333;BME280;48624;49.812;8.562;2023-10-19T11:30:27;98484.19;;;19.32;88.78
62333;BME280;48624;49.812;8.562;2023-10-19T11:32:54;98482.31;;;19.33;88.38
62333;BME280;48624;49.812;8.562;2023-10-19T11:35:26;98484.78;;;19.34;88.09
62333;BME280;48624;49.812;8.562;2023-10-19T11:37:54;98484.19;;;19.25;88.41
62333;BME280;48624;49.812;8.562;2023-10-19T11:40:23;98486.22;;;19.30;87.75
62333;BME280;48624;49.812;8.562;2023-10-19T11:42:49;98478.63;;;19.13;87.16
62333;BME280;48624;49.812;8.562;2023-10-19T11:45:16;98466.47;;;19.11;87.24
62333;BME280;48624;49.812;8.562;2023-10-19T11:47:45;98455.75;;;19.04;86.83
62333;BME280;48624;49.812;8.562;2023-10-19T11:50:11;98468.91;;;18.99;87.67
62333;BME280;48624;49.812;8.562;2023-10-19T11:52:44;98464.81;;;19.10;87.62
62333;BME280;48624;49.812;8.562;2023-10-19T11:55:14;98465.19;;;19.00;86.72
62333;BME280;48624;49.812;8.562;2023-10-19T11:57:40;98461.72;;;19.06;87.38
62333;BME280;48624;49.812;8.562;2023-10-19T12:00:09;98454.47;;;19.00;87.40
62333;BME280;48624;49.812;8.562;2023-10-19T12:02:39;98457.38;;;18.98;87.47
62333;BME280;48624;49.812;8.562;2023-10-19T12:05:06;98453.03;;;18.97;87.28
62333;BME280;48624;49.812;8.562;2023-10-19T12:07:38;98448.72;;;18.76;87.26
62333;BME280;48624;49.812;8.562;2023-10-19T12:10:12;98444.38;;;18.75;87.02
62333;BME280;48624;49.812;8.562;2023-10-19T12:12:38;98439.63;;;18.64;88.14
62333;BME280;48624;49.812;8.562;2023-10-19T12:15:04;98444.38;;;18.55;87.38
62333;BME280;48624;49.812;8.562;2023-10-19T12:17:31;98439.22;;;18.67;87.86
62333;BME280;48624;49.812;8.562;2023-10-19T12:19:56;98436.31;;;18.62;87.14
62333;BME280;48624;49.812;8.562;2023-10-19T12:22:21;98444.38;;;18.48;88.17
62333;BME280;48624;49.812;8.562;2023-10-19T12:24:47;98440.06;;;18.54;88.37
62333;BME280;48624;49.812;8.562;2023-10-19T12:27:14;98433.44;;;18.36;89.54
62333;BME280;48624;49.812;8.562;2023-10-19T12:29:40;98437.16;;;18.22;89.53
62333;BME280;48624;49.812;8.562;2023-10-19T12:32:06;98437.56;;;18.46;89.20
62333;BME280;48624;49.812;8.562;2023-10-19T12:34:31;98426.19;;;18.30;90.26
62333;BME280;48624;49.812;8.562;2023-10-19T12:36:56;98427.00;;;18.10;88.77
62333;BME280;48624;49.812;8.562;2023-10-19T12:39:24;98427.47;;;18.27;89.02
62333;BME280;48624;49.812;8.562;2023-10-19T12:42:03;98428.25;;;18.21;90.08
62333;BME280;48624;49.812;8.562;2023-10-19T12:44:28;98432.41;;;18.24;89.51
62333;BME280;48624;49.812;8.562;2023-10-19T12:46:55;98434.44;;;18.15;89.81
62333;BME280;48624;49.812;8.562;2023-10-19T12:49:22;98426.16;;;18.03;90.04
62333;BME280;48624;49.812;8.562;2023-10-19T12:51:51;98428.59;;;17.98;90.78
62333;BME280;48624;49.812;8.562;2023-10-19T12:54:17;98426.56;;;18.07;89.89
62333;BME280;48624;49.812;8.562;2023-10-19T12:56:43;98425.31;;;18.02;90.50
62333;BME280;48624;49.812;8.562;2023-10-19T12:59:08;98424.31;;;18.03;90.49
62333;BME280;48624;49.812;8.562;2023-10-19T13:01:34;98431.50;;;18.03;90.67